Time;durP1;ratioP1;P1;durP2;ratioP2;P2;SDS_P1;SDS_P2;PMS_P1;PMS_P2;Temp;Humidity;BMP_temperature;BMP_pressure;BME280_temperature;BME280_humidity;BME280_pressure;Samples;Min_cycle;Max_cycle;Signal;HPM_P1;HPM_P2
2021/09/27 00:01:14;;;;;;;31.73;20.75;;;17.10;99.90;;;;;;5092414;28;20024;-70
2021/09/27 00:03:41;;;;;;;33.45;20.60;;;17.00;99.90;;;;;;5092343;28;20487;-70
2021/09/27 00:06:09;;;;;;;29.88;18.65;;;17.10;99.90;;;;;;5093545;28;20020;-70
2021/09/27 00:08:35;;;;;;;28.92;19.35;;;17.10;99.90;;;;;;5093538;28;20032;-70
2021/09/27 00:11:28;;;;;;;30.55;20.48;;;17.20;99.90;;;;;;5093252;28;20070;-70
2021/09/27 00:14:00;;;;;;;31.98;19.52;;;17.20;99.90;;;;;;5092831;28;20040;-70
2021/09/27 00:16:27;;;;;;;30.35;19.13;;;17.20;99.90;;;;;;5093112;28;20420;-69
2021/09/27 00:18:53;;;;;;;29.50;19.88;;;17.10;99.90;;;;;;5092382;28;20028;-70
2021/09/27 00:21:24;;;;;;;30.80;19.08;;;17.00;99.90;;;;;;5093433;28;20020;-70
2021/09/27 00:23:50;;;;;;;33.58;22.42;;;16.80;99.90;;;;;;5092091;28;20028;-69
2021/09/27 00:26:18;;;;;;;35.55;22.42;;;16.80;99.90;;;;;;5092879;28;20036;-69
2021/09/27 00:28:45;;;;;;;34.90;22.38;;;16.70;99.90;;;;;;5093049;28;20564;-70
2021/09/27 00:31:12;;;;;;;31.92;21.13;;;16.70;99.90;;;;;;5092247;28;20036;-70
2021/09/27 00:33:39;;;;;;;32.20;21.55;;;16.60;99.90;;;;;;5092963;28;20039;-70
2021/09/27 00:36:05;;;;;;;35.63;21.75;;;16.60;99.90;;;;;;5093107;28;20034;-70
2021/09/27 00:38:32;;;;;;;34.30;22.38;;;16.50;99.90;;;;;;5092789;28;20032;-70
2021/09/27 00:41:04;;;;;;;39.22;22.38;;;16.50;99.90;;;;;;5093149;28;20047;-70
2021/09/27 00:43:34;;;;;;;33.38;21.83;;;16.50;99.90;;;;;;5092808;28;20362;-69
2021/09/27 00:46:06;;;;;;;32.75;21.02;;;16.50;99.90;;;;;;5093309;28;20605;-70
2021/09/27 00:48:32;;;;;;;33.67;21.05;;;16.50;99.90;;;;;;5090638;28;20424;-70
2021/09/27 00:51:05;;;;;;;27.52;18.60;;;16.50;99.90;;;;;;5092824;28;20032;-70
2021/09/27 00:53:35;;;;;;;32.65;20.48;;;16.40;99.90;;;;;;5091445;28;20028;-70
2021/09/27 00:56:03;;;;;;;36.00;21.67;;;16.40;99.90;;;;;;5091843;28;20092;-70
2021/09/27 00:58:31;;;;;;;37.05;22.15;;;16.40;99.90;;;;;;5091531;28;20060;-70
2021/09/27 01:00:58;;;;;;;40.83;22.42;;;16.30;99.90;;;;;;5091520;28;20060;-70
2021/09/27 01:03:26;;;;;;;34.85;23.20;;;16.40;99.90;;;;;;5092536;28;20032;-70
2021/09/27 01:06:31;;;;;;;37.90;23.50;;;16.30;99.90;;;;;;5091474;28;20484;-70
2021/09/27 01:09:40;;;;;;;41.45;23.58;;;16.30;99.90;;;;;;5092674;28;20036;-70
2021/09/27 01:12:24;;;;;;;39.08;23.00;;;16.30;99.90;;;;;;5092585;28;20103;-70
2021/09/27 01:15:17;;;;;;;36.53;23.30;;;16.20;99.90;;;;;;5092707;28;20085;-70
2021/09/27 01:18:23;;;;;;;38.72;22.70;;;16.20;99.90;;;;;;5092263;28;20058;-71
2021/09/27 01:21:14;;;;;;;42.13;23.75;;;16.20;99.90;;;;;;5091363;28;20067;-70
2021/09/27 01:24:20;;;;;;;37.85;23.98;;;16.10;99.90;;;;;;5092539;28;20119;-70
2021/09/27 01:27:42;;;;;;;39.40;24.08;;;16.00;99.90;;;;;;5092232;28;20040;-71
2021/09/27 01:30:29;;;;;;;40.20;23.48;;;16.00;99.90;;;;;;5092799;28;20040;-71
2021/09/27 01:33:06;;;;;;;40.15;24.15;;;15.90;99.90;;;;;;5090892;28;20040;-71
2021/09/27 01:35:56;;;;;;;43.10;24.77;;;16.00;99.90;;;;;;5091195;28;20085;-71
2021/09/27 01:38:49;;;;;;;40.63;23.80;;;15.90;99.90;;;;;;5092314;28;20047;-71
2021/09/27 01:41:50;;;;;;;44.00;25.73;;;16.00;99.90;;;;;;5083815;28;20396;-71
2021/09/27 01:44:37;;;;;;;40.67;24.58;;;16.00;99.90;;;;;;5091157;28;20028;-71
2021/09/27 01:47:23;;;;;;;44.58;26.20;;;15.90;99.90;;;;;;5091974;28;20523;-71
2021/09/27 01:50:16;;;;;;;43.33;25.48;;;15.90;99.90;;;;;;5090885;28;20035;-71
2021/09/27 01:53:23;;;;;;;44.55;24.65;;;16.00;99.90;;;;;;5090768;28;20467;-71
2021/09/27 01:56:14;;;;;;;43.10;24.15;;;16.00;99.90;;;;;;5083566;28;20050;-71
2021/09/27 01:59:06;;;;;;;43.70;24.77;;;16.00;99.90;;;;;;5093220;28;20038;-71
2021/09/27 02:01:55;;;;;;;43.97;27.35;;;16.00;99.90;;;;;;5096117;28;20377;-71
2021/09/27 02:04:28;;;;;;;42.47;24.48;;;15.90;99.90;;;;;;5094670;28;20158;-71
2021/09/27 02:06:57;;;;;;;41.38;23.45;;;15.90;99.90;;;;;;5094614;28;20043;-71
2021/09/27 02:09:33;;;;;;;43.60;24.35;;;15.90;99.90;;;;;;5096110;28;20121;-71
2021/09/27 02:12:10;;;;;;;47.42;24.30;;;15.90;99.90;;;;;;5094603;28;20036;-71
2021/09/27 02:15:17;;;;;;;41.92;24.50;;;15.90;99.90;;;;;;5094453;28;20027;-71
2021/09/27 02:18:09;;;;;;;44.55;24.83;;;15.70;99.90;;;;;;5094809;28;20040;-71
2021/09/27 02:20:45;;;;;;;42.83;23.55;;;15.70;99.90;;;;;;5094536;28;20430;-71
2021/09/27 02:23:33;;;;;;;39.40;23.13;;;15.70;99.90;;;;;;5094632;28;20123;-71
2021/09/27 02:25:59;;;;;;;39.60;23.73;;;15.70;99.90;;;;;;5094306;28;20446;-71
2021/09/27 02:28:26;;;;;;;43.25;25.42;;;15.70;99.90;;;;;;5095358;28;20044;-71
2021/09/27 02:31:07;;;;;;;41.78;24.83;;;15.80;99.90;;;;;;5094215;28;20482;-71
2021/09/27 02:33:57;;;;;;;44.95;24.55;;;15.80;99.90;;;;;;5094192;28;20420;-71
2021/09/27 02:36:48;;;;;;;42.75;24.73;;;15.80;99.90;;;;;;5095688;28;20039;-70
2021/09/27 02:39:26;;;;;;;44.15;22.63;;;15.80;99.90;;;;;;5094424;28;20103;-71
2021/09/27 02:42:17;;;;;;;47.33;24.88;;;15.70;99.90;;;;;;5094031;28;20138;-71
2021/09/27 02:44:45;;;;;;;43.45;23.15;;;15.70;99.90;;;;;;5094931;28;20040;-71
2021/09/27 02:47:15;;;;;;;42.20;23.92;;;15.70;99.90;;;;;;5095057;28;20119;-71
2021/09/27 02:49:44;;;;;;;44.22;24.48;;;15.70;99.90;;;;;;5093809;28;20030;-71
2021/09/27 02:52:15;;;;;;;46.83;24.83;;;15.80;99.90;;;;;;5094099;28;20044;-71
2021/09/27 02:55:06;;;;;;;43.53;25.08;;;15.80;99.90;;;;;;5095120;28;20039;-71
2021/09/27 02:57:55;;;;;;;43.67;24.60;;;15.80;99.90;;;;;;5093893;28;20043;-71
2021/09/27 03:00:44;;;;;;;44.83;25.23;;;15.80;99.90;;;;;;5094707;28;20040;-71
2021/09/27 03:03:35;;;;;;;44.97;25.17;;;15.80;99.90;;;;;;5093556;28;20036;-71
2021/09/27 03:06:15;;;;;;;45.63;24.95;;;15.80;99.90;;;;;;5094596;28;20425;-71
2021/09/27 03:08:56;;;;;;;48.25;25.17;;;15.80;99.90;;;;;;5094586;28;20135;-71
2021/09/27 03:11:27;;;;;;;;;;;15.90;99.90;;;;;;5094587;28;20490;-71
2021/09/27 03:14:20;;;;;;;46.38;24.35;;;15.90;99.90;;;;;;5094531;28;20380;-71
2021/09/27 03:17:16;;;;;;;44.67;25.33;;;15.90;99.90;;;;;;5094306;28;20056;-71
2021/09/27 03:20:23;;;;;;;46.67;23.92;;;15.90;99.90;;;;;;5085932;28;20044;-71
2021/09/27 03:23:05;;;;;;;44.40;25.05;;;15.90;99.90;;;;;;5064965;28;20542;-71
2021/09/27 03:25:33;;;;;;;;;;;16.00;99.90;;;;;;5094921;28;20039;-71
2021/09/27 03:28:06;;;;;;;45.83;24.63;;;16.00;99.90;;;;;;5094401;28;19912;-70
2021/09/27 03:31:16;;;;;;;39.10;23.30;;;16.00;99.90;;;;;;5093030;28;20028;-71
2021/09/27 03:34:13;;;;;;;42.78;23.95;;;16.00;99.90;;;;;;5062331;28;20052;-71
2021/09/27 03:37:13;;;;;;;44.05;23.25;;;16.00;99.90;;;;;;5093071;28;20118;-71
2021/09/27 03:40:11;;;;;;;37.17;21.65;;;16.00;99.90;;;;;;5092884;28;20043;-70
2021/09/27 03:43:18;;;;;;;38.97;22.13;;;16.00;99.90;;;;;;5067640;28;20105;-70
2021/09/27 03:46:09;;;;;;;39.28;22.60;;;16.00;99.90;;;;;;5093845;28;20031;-70
2021/09/27 03:49:25;;;;;;;40.67;22.15;;;16.00;99.90;;;;;;5093943;28;20040;-70
2021/09/27 03:51:59;;;;;;;38.05;22.40;;;16.00;99.90;;;;;;5082635;28;20037;-70
2021/09/27 03:54:53;;;;;;;34.92;21.77;;;16.00;99.90;;;;;;5092884;28;20035;-69
2021/09/27 03:57:53;;;;;;;36.58;21.67;;;16.00;99.90;;;;;;5084035;28;20044;-70
2021/09/27 04:01:20;;;;;;;34.20;20.65;;;16.00;99.90;;;;;;5086756;28;20032;-70
2021/09/27 04:04:01;;;;;;;34.95;21.05;;;16.00;99.90;;;;;;5070053;28;20036;-70
2021/09/27 04:06:36;;;;;;;;;;;15.90;99.90;;;;;;5091038;28;20032;-70
2021/09/27 04:09:31;;;;;;;35.75;21.55;;;15.90;99.90;;;;;;5084618;28;20201;-70
2021/09/27 04:12:14;;;;;;;36.50;21.13;;;15.90;99.90;;;;;;5085345;28;20426;-70
2021/09/27 04:14:54;;;;;;;41.25;21.55;;;15.90;99.90;;;;;;5081647;28;20033;-70
2021/09/27 04:17:33;;;;;;;40.75;22.38;;;15.80;99.90;;;;;;5078221;28;20500;-70
2021/09/27 04:20:19;;;;;;;46.40;22.17;;;15.70;99.90;;;;;;5078624;28;20021;-69
2021/09/27 04:22:57;;;;;;;40.85;21.92;;;15.70;99.90;;;;;;5083381;28;20066;-73
2021/09/27 04:25:59;;;;;;;40.83;22.75;;;15.70;99.90;;;;;;5074408;28;20370;-76
2021/09/27 04:28:28;;;;;;;41.47;23.05;;;15.70;99.90;;;;;;5073763;28;20054;-79
2021/09/27 04:31:14;;;;;;;40.60;23.73;;;15.60;99.90;;;;;;5088645;28;20032;-78
2021/09/27 04:33:58;;;;;;;41.60;23.58;;;15.60;99.90;;;;;;5088612;28;20115;-77
2021/09/27 04:36:33;;;;;;;42.00;23.83;;;15.60;99.90;;;;;;5076718;28;20396;-77
2021/09/27 04:39:10;;;;;;;41.50;21.88;;;15.50;99.90;;;;;;5091834;28;20038;-77
2021/09/27 04:41:57;;;;;;;38.28;21.55;;;15.50;99.90;;;;;;5090934;28;20036;-78
2021/09/27 04:44:35;;;;;;;38.25;21.67;;;15.60;99.90;;;;;;5085050;28;20028;-76
2021/09/27 04:47:47;;;;;;;39.38;22.17;;;15.70;99.90;;;;;;5073343;28;20036;-76
2021/09/27 04:50:52;;;;;;;35.40;20.75;;;15.70;99.90;;;;;;5071533;28;20025;-77
2021/09/27 04:53:51;;;;;;;38.70;21.70;;;15.90;99.90;;;;;;5081310;28;20492;-77
2021/09/27 04:56:44;;;;;;;45.40;23.10;;;15.80;99.90;;;;;;5080980;28;20028;-76
2021/09/27 04:59:46;;;;;;;40.58;23.02;;;15.70;99.90;;;;;;5079702;28;20473;-76
2021/09/27 05:02:43;;;;;;;37.03;21.00;;;15.60;99.90;;;;;;5072060;28;20033;-76
2021/09/27 05:05:47;;;;;;;39.58;22.85;;;15.70;99.90;;;;;;5071994;28;20103;-76
2021/09/27 05:08:36;;;;;;;38.80;20.92;;;15.70;99.90;;;;;;5077322;28;20485;-77
2021/09/27 05:11:41;;;;;;;41.65;20.77;;;15.70;99.90;;;;;;5082456;28;20117;-77
2021/09/27 05:14:32;;;;;;;38.10;20.05;;;15.70;99.90;;;;;;5079892;28;20564;-74
2021/09/27 05:17:11;;;;;;;37.73;21.00;;;15.70;99.90;;;;;;5079360;28;20434;-74
2021/09/27 05:20:05;;;;;;;33.17;19.63;;;15.60;99.90;;;;;;5074956;28;20075;-76
2021/09/27 05:23:06;;;;;;;37.80;21.33;;;15.60;99.90;;;;;;5082129;28;20047;-74
2021/09/27 05:26:15;;;;;;;41.65;21.10;;;15.50;99.90;;;;;;5082329;28;20170;-80
2021/09/27 05:29:27;;;;;;;38.13;21.73;;;15.40;99.90;;;;;;5086659;28;20036;-79
2021/09/27 05:32:18;;;;;;;40.65;22.75;;;15.30;99.90;;;;;;5087186;28;20525;-78
2021/09/27 05:35:03;;;;;;;;;;;15.30;99.90;;;;;;5092509;28;20090;-78
2021/09/27 05:37:51;;;;;;;42.85;22.10;;;15.20;99.90;;;;;;5087161;28;19913;-77
2021/09/27 05:40:57;;;;;;;47.78;22.42;;;15.20;99.90;;;;;;5094804;28;20472;-77
2021/09/27 05:43:56;;;;;;;39.90;22.35;;;15.20;99.90;;;;;;5095819;28;20078;-77
2021/09/27 05:46:44;;;;;;;47.55;22.38;;;15.20;99.90;;;;;;5093899;28;20062;-78
2021/09/27 05:49:40;;;;;;;41.08;21.63;;;15.20;99.90;;;;;;5074592;28;20120;-78
2021/09/27 05:52:49;;;;;;;45.30;21.42;;;15.30;99.90;;;;;;5067208;28;20562;-78
2021/09/27 05:55:32;;;;;;;38.67;20.83;;;15.40;99.90;;;;;;5058793;28;20071;-78
2021/09/27 05:58:11;;;;;;;40.58;20.35;;;15.50;99.90;;;;;;5074548;28;20032;-79
2021/09/27 06:00:55;;;;;;;36.92;20.98;;;15.60;99.90;;;;;;5074224;28;20035;-79
2021/09/27 06:03:52;;;;;;;39.75;21.08;;;15.60;99.90;;;;;;5075375;28;20396;-79
2021/09/27 06:06:24;;;;;;;42.05;21.40;;;15.50;99.90;;;;;;5090866;28;20032;-79
2021/09/27 06:09:05;;;;;;;41.70;22.15;;;15.50;99.90;;;;;;5074057;28;20040;-79
2021/09/27 06:11:53;;;;;;;43.60;21.90;;;15.60;99.90;;;;;;5074677;28;20036;-79
2021/09/27 06:14:19;;;;;;;40.35;21.92;;;15.60;99.90;;;;;;5075537;28;20035;-79
2021/09/27 06:17:49;;;;;;;45.05;21.25;;;15.60;99.90;;;;;;5079448;28;20052;-78
2021/09/27 06:20:44;;;;;;;44.72;23.35;;;15.50;99.90;;;;;;5071992;28;20059;-77
2021/09/27 06:24:01;;;;;;;39.75;21.98;;;15.60;99.90;;;;;;5085064;28;20039;-79
2021/09/27 06:26:34;;;;;;;45.25;22.77;;;15.50;99.90;;;;;;5012786;28;20038;-79
2021/09/27 06:29:46;;;;;;;40.97;23.23;;;15.60;99.90;;;;;;4997343;28;20110;-79
2021/09/27 06:32:53;;;;;;;45.83;23.15;;;15.60;99.90;;;;;;5060564;28;20047;-80
2021/09/27 06:35:27;;;;;;;45.30;22.90;;;15.60;99.90;;;;;;5075025;28;20043;-78
2021/09/27 06:37:54;;;;;;;39.50;21.75;;;15.60;99.90;;;;;;5073612;28;20544;-79
2021/09/27 06:40:21;;;;;;;41.33;22.40;;;15.70;99.90;;;;;;5076348;28;20031;-78
2021/09/27 06:42:47;;;;;;;39.47;22.77;;;15.70;99.90;;;;;;5092009;28;20036;-79
2021/09/27 06:45:14;;;;;;;37.75;20.98;;;15.70;99.90;;;;;;5069559;28;20048;-79
2021/09/27 06:47:40;;;;;;;39.13;21.83;;;15.80;99.90;;;;;;5080283;28;20028;-78
2021/09/27 06:50:08;;;;;;;37.67;21.50;;;15.90;99.90;;;;;;5085177;28;20103;-79
2021/09/27 06:52:34;;;;;;;37.55;20.75;;;16.00;99.90;;;;;;5094044;28;20032;-79
2021/09/27 06:55:00;;;;;;;38.80;21.55;;;16.00;99.90;;;;;;5093424;28;20448;-79
2021/09/27 06:57:25;;;;;;;41.35;20.67;;;16.00;99.90;;;;;;5094461;28;20695;-78
2021/09/27 06:59:51;;;;;;;37.25;21.20;;;16.00;99.90;;;;;;5094538;28;20104;-79
2021/09/27 07:02:18;;;;;;;37.30;21.67;;;16.00;99.90;;;;;;5094524;28;20044;-79
2021/09/27 07:04:44;;;;;;;34.75;20.08;;;16.10;99.90;;;;;;5094713;28;20527;-78
2021/09/27 07:07:11;;;;;;;36.40;20.20;;;16.10;99.90;;;;;;5093127;28;20036;-78
2021/09/27 07:09:38;;;;;;;33.58;19.00;;;16.20;99.90;;;;;;5094953;28;20059;-78
2021/09/27 07:12:05;;;;;;;34.95;18.73;;;16.30;99.90;;;;;;5109959;28;20414;-78
2021/09/27 07:14:31;;;;;;;32.42;19.75;;;16.30;99.90;;;;;;5094657;28;20134;-79
2021/09/27 07:16:57;;;;;;;31.55;18.85;;;16.40;99.90;;;;;;5094119;28;20071;-78
2021/09/27 07:19:23;;;;;;;29.48;18.52;;;16.60;99.90;;;;;;5094462;28;20078;-78
2021/09/27 07:21:49;;;;;;;27.52;16.98;;;16.70;99.90;;;;;;5094438;28;20024;-78
2021/09/27 07:24:15;;;;;;;29.45;16.63;;;16.70;99.90;;;;;;5089206;28;20024;-78
2021/09/27 07:26:42;;;;;;;26.42;15.88;;;16.80;99.90;;;;;;5090796;28;20113;-78
2021/09/27 07:29:08;;;;;;;27.42;16.77;;;17.00;99.90;;;;;;5074217;28;20037;-77
2021/09/27 07:31:36;;;;;;;26.25;15.93;;;17.00;99.90;;;;;;5072614;28;20055;-78
2021/09/27 07:34:06;;;;;;;29.88;16.15;;;17.10;99.90;;;;;;5073777;28;20040;-78
2021/09/27 07:36:32;;;;;;;26.42;16.17;;;17.20;99.90;;;;;;5056249;28;20127;-78
2021/09/27 07:38:57;;;;;;;25.20;15.05;;;17.30;99.90;;;;;;5072360;28;20067;-79
2021/09/27 07:41:25;;;;;;;26.60;16.58;;;17.20;99.90;;;;;;5073842;28;20060;-79
2021/09/27 07:43:51;;;;;;;28.33;16.10;;;17.30;99.90;;;;;;5073852;28;20541;-78
2021/09/27 07:46:18;;;;;;;27.90;16.55;;;17.30;99.90;;;;;;5073982;28;20032;-78
2021/09/27 07:48:46;;;;;;;25.90;15.63;;;17.30;99.90;;;;;;5089066;28;20064;-77
2021/09/27 07:51:12;;;;;;;23.67;15.68;;;17.40;99.90;;;;;;5072289;28;20032;-78
2021/09/27 07:53:38;;;;;;;23.95;14.00;;;17.30;99.90;;;;;;5072613;28;20423;-78
2021/09/27 07:56:04;;;;;;;21.65;14.45;;;17.40;99.90;;;;;;5072309;28;20021;-78
2021/09/27 07:58:30;;;;;;;23.70;14.57;;;17.40;99.90;;;;;;5073591;28;20070;-78
2021/09/27 08:00:55;;;;;;;23.25;14.10;;;17.40;99.90;;;;;;5073361;28;20036;-78
2021/09/27 08:03:22;;;;;;;23.73;14.77;;;17.30;99.90;;;;;;5073471;28;20054;-77
2021/09/27 08:05:49;;;;;;;24.60;14.98;;;17.20;99.90;;;;;;5072097;28;20025;-77
2021/09/27 08:08:15;;;;;;;23.05;13.90;;;17.20;99.90;;;;;;5073330;28;20036;-77
2021/09/27 08:10:41;;;;;;;24.80;15.45;;;17.40;99.90;;;;;;5077880;28;20055;-74
2021/09/27 08:13:08;;;;;;;23.27;14.95;;;17.30;99.90;;;;;;5086128;28;20032;-73
2021/09/27 08:15:42;;;;;;;22.40;13.80;;;17.30;99.90;;;;;;5075113;28;20029;-74
2021/09/27 08:18:12;;;;;;;23.08;14.93;;;17.30;99.90;;;;;;5092005;28;20036;-76
2021/09/27 08:20:48;;;;;;;21.83;15.35;;;17.20;99.90;;;;;;5091993;28;20552;-76
2021/09/27 08:23:14;;;;;;;21.65;14.55;;;17.10;99.90;;;;;;5091859;28;20032;-76
2021/09/27 08:25:41;;;;;;;21.67;13.48;;;17.20;99.90;;;;;;5075090;28;20093;-76
2021/09/27 08:28:12;;;;;;;17.88;12.15;;;17.30;99.90;;;;;;5072609;28;20043;-76
2021/09/27 08:30:45;;;;;;;18.50;12.40;;;17.40;99.90;;;;;;5073140;28;20036;-76
2021/09/27 08:33:11;;;;;;;18.50;11.55;;;17.70;99.90;;;;;;5071207;28;20072;-75
2021/09/27 08:35:37;;;;;;;17.52;12.05;;;17.70;99.90;;;;;;5072970;28;20033;-75
2021/09/27 08:38:07;;;;;;;18.65;12.02;;;17.80;99.90;;;;;;5071509;28;20035;-76
2021/09/27 08:40:51;;;;;;;19.85;11.98;;;17.80;99.90;;;;;;5072881;28;20115;-75
2021/09/27 08:43:27;;;;;;;20.35;13.45;;;17.90;99.90;;;;;;5072295;28;20432;-76
2021/09/27 08:45:57;;;;;;;22.92;13.00;;;17.80;99.90;;;;;;5071680;28;20033;-76
2021/09/27 08:48:40;;;;;;;21.60;12.98;;;17.80;99.90;;;;;;5071500;28;20063;-76
2021/09/27 08:51:05;;;;;;;17.85;12.55;;;17.80;99.90;;;;;;5071237;28;20047;-76
2021/09/27 08:53:44;;;;;;;21.42;12.82;;;17.80;99.90;;;;;;5072347;28;20032;-76
2021/09/27 08:56:35;;;;;;;17.50;12.32;;;17.90;99.90;;;;;;5071233;28;20050;-77
2021/09/27 08:59:12;;;;;;;17.85;12.35;;;17.90;99.90;;;;;;5072233;28;20501;-76
2021/09/27 09:01:59;;;;;;;18.52;12.48;;;17.90;99.90;;;;;;5071026;28;20046;-76
2021/09/27 09:04:42;;;;;;;23.08;13.45;;;17.90;99.90;;;;;;5072262;28;20428;-76
2021/09/27 09:07:16;;;;;;;18.55;13.10;;;17.80;99.90;;;;;;5054981;28;20507;-76
2021/09/27 09:09:55;;;;;;;17.50;11.57;;;17.80;99.90;;;;;;5070806;28;20117;-76
2021/09/27 09:12:54;;;;;;;20.27;12.30;;;17.90;99.90;;;;;;5070994;28;20123;-76
2021/09/27 09:15:27;;;;;;;18.15;12.23;;;17.90;99.90;;;;;;5070689;28;20040;-76
2021/09/27 09:18:05;;;;;;;17.35;12.45;;;18.10;99.90;;;;;;5071187;28;20029;-76
2021/09/27 09:21:04;;;;;;;19.80;12.55;;;18.10;99.90;;;;;;5072354;28;20040;-75
2021/09/27 09:23:57;;;;;;;21.40;10.88;;;18.20;99.90;;;;;;5070851;28;20073;-76
2021/09/27 09:26:36;;;;;;;15.10;11.45;;;18.50;99.90;;;;;;5067175;28;20048;-76
2021/09/27 09:29:04;;;;;;;17.70;12.02;;;18.60;99.90;;;;;;5071729;28;20505;-77
2021/09/27 09:31:35;;;;;;;20.70;11.95;;;18.60;99.90;;;;;;5070843;28;20025;-76
2021/09/27 09:34:18;;;;;;;19.60;11.90;;;18.50;99.90;;;;;;5070560;28;20032;-77
2021/09/27 09:36:46;;;;;;;23.38;14.68;;;18.50;99.90;;;;;;5071759;28;20497;-78
2021/09/27 09:39:33;;;;;;;17.05;11.23;;;18.60;99.90;;;;;;5070075;28;20036;-77
2021/09/27 09:42:06;;;;;;;15.75;10.55;;;18.90;99.90;;;;;;5071465;28;20032;-77
2021/09/27 09:44:41;;;;;;;18.75;10.02;;;19.00;99.90;;;;;;5070948;28;20154;-77
2021/09/27 09:47:28;;;;;;;16.95;11.38;;;19.20;99.90;;;;;;5071677;28;20465;-76
2021/09/27 09:50:21;;;;;;;17.63;10.38;;;19.40;99.90;;;;;;5071423;28;20393;-79
2021/09/27 09:52:54;;;;;;;15.15;10.23;;;19.30;99.90;;;;;;5071488;28;20092;-76
2021/09/27 09:55:54;;;;;;;16.42;10.77;;;19.50;99.90;;;;;;5071689;28;20538;-78
2021/09/27 09:58:46;;;;;;;13.05;9.35;;;19.40;99.90;;;;;;5064527;28;20049;-76
2021/09/27 10:01:33;;;;;;;13.85;9.02;;;19.30;99.90;;;;;;5070531;28;20095;-75
2021/09/27 10:04:06;;;;;;;14.05;9.20;;;19.70;99.90;;;;;;5071523;28;20037;-75
2021/09/27 10:06:47;;;;;;;14.05;10.05;;;19.70;99.90;;;;;;5075910;28;20597;-78
2021/09/27 10:09:25;;;;;;;13.57;9.50;;;19.80;99.90;;;;;;5063421;28;20101;-77
2021/09/27 10:11:55;;;;;;;11.60;7.93;;;19.90;99.90;;;;;;5057627;28;20032;-76
2021/09/27 10:14:31;;;;;;;;;;;19.70;99.90;;;;;;5091010;28;20036;-77
2021/09/27 10:17:11;;;;;;;13.73;8.85;;;20.00;99.90;;;;;;5091972;28;19942;-76
2021/09/27 10:20:08;;;;;;;12.98;7.95;;;20.30;99.90;;;;;;5099566;28;20031;-77
2021/09/27 10:22:39;;;;;;;11.60;7.40;;;20.50;99.90;;;;;;5088146;28;20037;-76
2021/09/27 10:25:40;;;;;;;9.95;6.78;;;20.80;99.90;;;;;;5073936;28;20496;-77
2021/09/27 10:28:13;;;;;;;11.00;7.03;;;20.90;99.90;;;;;;5077360;28;20097;-76
2021/09/27 10:30:45;;;;;;;10.77;6.85;;;21.10;99.90;;;;;;5073975;28;20044;-75
2021/09/27 10:33:28;;;;;;;9.38;6.65;;;21.30;99.90;;;;;;5074815;28;20477;-75
2021/09/27 10:36:07;;;;;;;11.20;6.75;;;21.40;99.90;;;;;;5073891;28;20154;-76
2021/09/27 10:38:45;;;;;;;9.27;6.65;;;21.30;99.90;;;;;;5075046;28;20037;-76
2021/09/27 10:41:32;;;;;;;9.05;5.70;;;21.40;99.90;;;;;;5073640;28;20028;-77
2021/09/27 10:44:23;;;;;;;7.93;6.05;;;21.60;99.90;;;;;;5073991;28;20033;-76
2021/09/27 10:46:53;;;;;;;9.95;6.57;;;21.70;99.90;;;;;;5074787;28;20531;-76
2021/09/27 10:49:32;;;;;;;6.93;4.60;;;21.70;99.90;;;;;;5085917;28;20040;-76
2021/09/27 10:52:21;;;;;;;8.57;5.65;;;21.80;99.90;;;;;;5093057;28;20035;-77
2021/09/27 10:55:15;;;;;;;7.32;5.22;;;22.00;99.90;;;;;;5076880;28;20048;-78
2021/09/27 10:58:08;;;;;;;7.53;5.43;;;22.00;99.90;;;;;;5073495;28;20025;-77
2021/09/27 11:00:52;;;;;;;6.28;4.32;;;22.20;99.90;;;;;;5073282;28;20029;-77
2021/09/27 11:03:52;;;;;;;6.25;3.67;;;22.50;99.90;;;;;;5082762;28;20035;-76
2021/09/27 11:06:41;;;;;;;8.48;3.58;;;22.60;99.90;;;;;;5094366;28;20024;-76
2021/09/27 11:09:28;;;;;;;6.80;3.83;;;22.60;99.90;;;;;;5093433;28;20032;-76
2021/09/27 11:12:03;;;;;;;8.98;4.13;;;22.70;99.90;;;;;;5078447;28;20039;-75
2021/09/27 11:14:36;;;;;;;4.95;3.60;;;22.80;99.90;;;;;;5094615;28;20040;-75
2021/09/27 11:18:00;;;;;;;5.50;4.00;;;22.80;99.90;;;;;;5094174;28;20055;-77
2021/09/27 11:20:53;;;;;;;7.00;4.28;;;22.90;99.90;;;;;;5080608;28;20036;-77
2021/09/27 11:23:31;;;;;;;6.22;4.10;;;22.70;99.90;;;;;;5094268;28;20072;-76
2021/09/27 11:26:14;;;;;;;5.38;3.80;;;22.80;99.90;;;;;;5092921;28;20127;-76
2021/09/27 11:28:59;;;;;;;9.43;4.35;;;22.70;99.90;;;;;;5094390;28;20044;-78
2021/09/27 11:31:38;;;;;;;6.78;3.85;;;22.90;99.90;;;;;;5093561;28;20066;-77
2021/09/27 11:34:42;;;;;;;6.20;4.20;;;22.80;99.90;;;;;;5094115;28;20035;-77
2021/09/27 11:37:25;;;;;;;10.05;4.30;;;23.10;99.90;;;;;;5093880;28;20028;-78
2021/09/27 11:40:17;;;;;;;9.68;4.30;;;23.00;99.90;;;;;;5088439;28;20025;-78
2021/09/27 11:42:42;;;;;;;6.68;3.78;;;22.90;99.90;;;;;;5066631;28;20485;-78
2021/09/27 11:45:54;;;;;;;5.97;3.38;;;22.70;99.90;;;;;;5073402;28;20086;-77
2021/09/27 11:48:20;;;;;;;8.00;3.13;;;22.70;99.90;;;;;;5073465;28;20033;-77
2021/09/27 11:51:06;;;;;;;5.35;3.33;;;22.60;99.90;;;;;;5073629;28;20035;-77
2021/09/27 11:54:01;;;;;;;6.65;3.35;;;22.50;99.90;;;;;;5073514;28;20033;-77
2021/09/27 11:56:57;;;;;;;5.57;3.30;;;22.10;99.90;;;;;;5072187;28;20036;-77
2021/09/27 12:00:03;;;;;;;3.80;2.58;;;22.10;99.90;;;;;;5073507;28;20039;-77
2021/09/27 12:02:57;;;;;;;6.40;2.63;;;21.90;99.90;;;;;;5073162;28;20035;-78
2021/09/27 12:06:22;;;;;;;3.53;2.40;;;21.70;99.90;;;;;;5071642;28;20037;-78
2021/09/27 12:09:02;;;;;;;5.10;2.63;;;21.60;99.90;;;;;;5091447;28;20050;-79
2021/09/27 12:11:28;;;;;;;4.43;2.22;;;21.70;99.90;;;;;;5091979;28;20115;-78
2021/09/27 12:14:00;;;;;;;3.90;2.35;;;21.80;99.90;;;;;;5093615;28;20034;-78
2021/09/27 12:16:34;;;;;;;5.07;2.53;;;22.00;99.90;;;;;;5091783;28;20378;-78
2021/09/27 12:19:25;;;;;;;4.85;2.60;;;22.00;99.90;;;;;;5091830;28;20473;-78
2021/09/27 12:22:16;;;;;;;3.58;2.17;;;22.20;99.90;;;;;;5093371;28;20032;-78
2021/09/27 12:24:43;;;;;;;5.00;2.60;;;22.40;99.90;;;;;;5092354;28;20047;-80
2021/09/27 12:27:24;;;;;;;6.03;3.28;;;22.60;99.90;;;;;;5091564;28;20093;-79
2021/09/27 12:30:02;;;;;;;9.57;4.00;;;22.40;99.90;;;;;;5091783;28;20043;-79
2021/09/27 12:33:01;;;;;;;5.07;2.58;;;22.50;99.90;;;;;;5092903;28;20028;-78
2021/09/27 12:35:42;;;;;;;4.10;2.58;;;22.40;99.90;;;;;;5091508;28;20489;-78
2021/09/27 12:38:08;;;;;;;;;;;22.60;99.90;;;;;;5093306;28;20024;-78
2021/09/27 12:40:46;;;;;;;4.30;2.97;;;22.70;99.90;;;;;;5093016;28;20288;-78
2021/09/27 12:43:23;;;;;;;5.75;3.17;;;22.90;99.90;;;;;;5090295;28;20479;-79
2021/09/27 12:45:56;;;;;;;4.13;2.67;;;23.00;99.90;;;;;;5091446;28;20454;-77
2021/09/27 12:48:31;;;;;;;4.03;2.70;;;23.00;99.90;;;;;;5091549;28;20431;-78
2021/09/27 12:51:07;;;;;;;7.18;3.50;;;22.90;99.90;;;;;;5075132;28;20024;-76
2021/09/27 12:53:58;;;;;;;6.53;2.65;;;22.90;99.90;;;;;;5091663;28;20032;-76
2021/09/27 12:56:24;;;;;;;5.72;2.58;;;22.90;99.90;;;;;;5091564;28;20043;-77
2021/09/27 12:59:04;;;;;;;4.60;2.55;;;23.10;99.90;;;;;;5090913;28;20024;-77
2021/09/27 13:01:34;;;;;;;5.40;2.35;;;23.20;99.90;;;;;;5091182;28;20034;-78
2021/09/27 13:04:05;;;;;;;8.23;2.60;;;23.40;99.90;;;;;;5092270;28;20038;-77
2021/09/27 13:06:53;;;;;;;6.88;2.38;;;23.50;99.90;;;;;;5092855;28;20035;-77
2021/09/27 13:09:38;;;;;;;4.45;2.63;;;23.50;99.90;;;;;;5075705;28;20077;-77
2021/09/27 13:12:30;;;;;;;3.15;2.17;;;23.80;99.90;;;;;;5092225;28;20032;-77
2021/09/27 13:15:15;;;;;;;3.90;2.67;;;24.10;99.90;;;;;;5091482;28;20036;-77
2021/09/27 13:18:35;;;;;;;5.40;2.03;;;24.30;99.90;;;;;;5090878;28;20040;-77
2021/09/27 13:21:22;;;;;;;4.00;2.20;;;24.60;99.90;;;;;;5029846;28;20033;-77
2021/09/27 13:24:00;;;;;;;3.83;2.20;;;24.30;99.90;;;;;;5092232;28;20034;-77
2021/09/27 13:27:08;;;;;;;4.20;2.35;;;24.10;99.90;;;;;;5074347;28;20122;-78
2021/09/27 13:29:38;;;;;;;4.85;2.80;;;23.90;99.90;;;;;;5092356;28;20036;-78
2021/09/27 13:32:28;;;;;;;5.60;2.10;;;24.00;99.90;;;;;;5091005;28;20043;-78
2021/09/27 13:35:18;;;;;;;5.60;2.83;;;24.50;99.90;;;;;;5091083;28;20132;-79
2021/09/27 13:37:56;;;;;;;4.32;2.40;;;24.70;99.90;;;;;;5092317;28;20035;-77
2021/09/27 13:40:29;;;;;;;6.00;2.03;;;24.90;99.90;;;;;;5091926;28;20119;-77
2021/09/27 13:43:27;;;;;;;7.15;2.30;;;24.90;99.90;;;;;;5092124;28;20432;-78
2021/09/27 13:46:05;;;;;;;4.65;2.33;;;24.60;99.90;;;;;;5083627;28;20044;-78
2021/09/27 13:48:32;;;;;;;4.95;2.60;;;24.20;99.90;;;;;;5090644;28;20040;-78